Time;durP1;ratioP1;P1;durP2;ratioP2;P2;SDS_P1;SDS_P2;PMS_P1;PMS_P2;Temp;Humidity;BMP_temperature;BMP_pressure;BME280_temperature;BME280_humidity;BME280_pressure;Samples;Min_cycle;Max_cycle;Signal;HPM_P1;HPM_P2
2022/07/31 00:06:59;;;;;;;4.18;2.33;;;;;;;21.18;48.33;100559.75;20855740;28;20037;-81
2022/07/31 00:17:02;;;;;;;4.97;2.42;;;;;;;20.84;49.92;100563.47;20875971;28;20046;-81
2022/07/31 00:27:04;;;;;;;6.35;2.05;;;;;;;20.53;50.66;100556.31;20849269;28;20038;-81
2022/07/31 00:37:06;;;;;;;4.88;2.40;;;;;;;20.24;51.75;100556.03;20855362;28;20503;-80
2022/07/31 00:47:08;;;;;;;5.57;2.60;;;;;;;20.23;52.17;100548.16;20832446;28;20517;-80
2022/07/31 00:57:09;;;;;;;4.78;2.30;;;;;;;19.99;52.99;100550.31;20865472;28;20042;-81
2022/07/31 01:07:10;;;;;;;5.13;2.25;;;;;;;19.76;54.30;100548.00;20872164;28;20033;-80
2022/07/31 01:17:12;;;;;;;5.82;2.40;;;;;;;19.56;55.87;100552.50;20855610;28;20042;-80
2022/07/31 01:27:13;;;;;;;5.30;2.20;;;;;;;19.35;57.65;100549.09;20845852;28;20050;-81
2022/07/31 01:37:15;;;;;;;4.03;2.15;;;;;;;19.34;59.68;100562.44;20845309;28;20469;-80
2022/07/31 01:47:16;;;;;;;6.18;2.35;;;;;;;19.39;59.70;100560.44;20865553;28;20047;-80
2022/07/31 01:57:17;;;;;;;6.00;2.20;;;;;;;19.17;61.11;100555.34;20854680;28;20068;-80
2022/07/31 02:07:19;;;;;;;5.78;2.40;;;;;;;19.03;61.15;100548.03;20841555;28;20060;-80
2022/07/31 02:17:20;;;;;;;7.20;2.80;;;;;;;18.84;62.85;100555.16;20843455;28;20046;-80
2022/07/31 02:27:22;;;;;;;5.75;2.60;;;;;;;18.63;64.00;100555.19;20866683;28;20041;-80
2022/07/31 02:37:44;;;;;;;6.07;2.20;;;;;;;18.31;66.18;100545.22;20871400;28;20054;-80
2022/07/31 02:47:45;;;;;;;5.78;2.45;;;;;;;18.35;67.67;100538.81;20850401;28;20049;-80
2022/07/31 02:57:47;;;;;;;5.10;2.25;;;;;;;18.54;67.67;100534.41;20872754;28;20099;-80
2022/07/31 03:07:50;;;;;;;5.97;3.00;;;;;;;18.48;68.75;100529.38;20854455;28;20041;-80
2022/07/31 03:17:51;;;;;;;5.03;2.60;;;;;;;18.37;69.89;100536.97;20876270;28;20469;-80
2022/07/31 03:27:53;;;;;;;5.95;3.03;;;;;;;18.22;70.09;100532.38;20884770;28;20724;-80
2022/07/31 03:37:57;;;;;;;5.13;2.60;;;;;;;18.22;71.40;100532.38;20871260;28;20049;-80
2022/07/31 03:47:58;;;;;;;4.90;2.67;;;;;;;18.06;72.57;100538.38;20857650;28;20054;-81
2022/07/31 03:58:00;;;;;;;5.82;2.60;;;;;;;18.09;71.58;100540.00;20880677;28;20133;-80
2022/07/31 04:08:02;;;;;;;6.10;2.40;;;;;;;18.35;70.52;100534.41;20844966;28;20494;-80
2022/07/31 04:18:04;;;;;;;4.72;2.60;;;;;;;18.48;70.24;100536.47;20868251;28;20045;-80
2022/07/31 04:28:06;;;;;;;7.50;2.40;;;;;;;18.69;69.38;100547.00;20845267;28;20128;-80
2022/07/31 04:38:08;;;;;;;4.97;2.70;;;;;;;18.44;69.06;100538.41;20836434;28;20752;-80
2022/07/31 04:48:12;;;;;;;5.17;2.50;;;;;;;18.79;66.81;100543.91;20866625;28;20048;-80
2022/07/31 04:58:16;;;;;;;6.65;2.83;;;;;;;19.08;65.96;100551.31;20875537;28;20041;-80
2022/07/31 05:08:17;;;;;;;5.17;2.53;;;;;;;19.21;66.13;100560.41;20863470;28;20045;-80
2022/07/31 05:18:19;;;;;;;8.00;2.88;;;;;;;19.37;63.09;100557.00;20848095;28;20048;-80
2022/07/31 05:28:23;;;;;;;5.13;2.63;;;;;;;19.51;65.01;100554.53;20857127;28;20045;-80
2022/07/31 05:38:30;;;;;;;7.90;2.70;;;;;;;19.67;63.65;100551.97;20883142;28;20598;-79
2022/07/31 05:48:31;;;;;;;6.10;2.55;;;;;;;19.88;63.82;100552.66;20873209;28;20455;-80
2022/07/31 05:58:33;;;;;;;4.95;2.92;;;;;;;20.18;63.73;100548.41;20841917;28;20041;-80
2022/07/31 06:08:34;;;;;;;5.88;2.65;;;;;;;20.41;69.27;100546.28;20855585;28;20054;-80
2022/07/31 06:18:36;;;;;;;6.88;3.03;;;;;;;20.55;70.98;100559.72;20865455;28;20057;-80
2022/07/31 06:28:37;;;;;;;7.30;3.08;;;;;;;20.87;75.83;100554.44;20837440;28;20049;-80
2022/07/31 06:38:49;;;;;;;4.90;2.88;;;;;;;21.15;67.14;100557.25;20839993;28;20036;-80
2022/07/31 06:48:50;;;;;;;6.53;2.83;;;;;;;21.27;66.08;100548.59;20856074;28;20658;-80
2022/07/31 06:58:52;;;;;;;5.55;2.53;;;;;;;21.47;64.13;100550.13;20865406;28;20583;-80
2022/07/31 07:08:53;;;;;;;5.13;2.55;;;;;;;21.81;64.76;100558.78;20846000;28;20037;-80
2022/07/31 07:18:58;;;;;;;;;;;;;;;22.17;58.83;100549.50;20850882;28;20048;-80
2022/07/31 07:29:00;;;;;;;5.93;2.70;;;;;;;22.93;55.01;100543.84;20869581;28;19924;-80
2022/07/31 07:39:02;;;;;;;5.88;2.50;;;;;;;23.43;48.34;100529.84;20849353;28;20033;-80
2022/07/31 07:49:03;;;;;;;4.00;1.90;;;;;;;23.97;43.64;100527.03;20871820;28;20056;-80
2022/07/31 07:59:06;;;;;;;4.85;2.38;;;;;;;24.31;42.66;100514.81;20871117;28;20094;-79
2022/07/31 08:09:15;;;;;;;6.82;2.10;;;;;;;25.17;41.78;100497.03;20846974;28;20045;-79
2022/07/31 08:19:17;;;;;;;4.78;1.80;;;;;;;25.65;40.43;100505.00;20861947;28;20052;-80
2022/07/31 08:29:19;;;;;;;4.45;1.83;;;;;;;25.94;41.04;100505.47;20858188;28;20413;-80
2022/07/31 08:39:28;;;;;;;4.10;1.90;;;;;;;26.88;37.09;100501.50;20840731;28;20053;-80
2022/07/31 08:49:30;;;;;;;2.80;1.63;;;;;;;27.23;36.30;100483.34;20841006;28;20433;-80
2022/07/31 08:59:31;;;;;;;4.15;1.85;;;;;;;27.50;35.75;100482.84;20856919;28;20089;-80
2022/07/31 09:09:33;;;;;;;3.55;1.58;;;;;;;27.87;35.17;100461.69;20830837;28;20512;-80
2022/07/31 09:19:53;;;;;;;4.95;1.50;;;;;;;27.96;34.57;100460.03;20850106;28;20045;-79
2022/07/31 09:29:55;;;;;;;4.70;1.50;;;;;;;28.13;34.84;100455.88;20834766;28;20406;-79
2022/07/31 09:39:56;;;;;;;4.55;1.55;;;;;;;28.04;34.15;100445.94;20847371;28;20858;-79
2022/07/31 09:49:58;;;;;;;3.45;1.60;;;;;;;28.07;35.24;100441.09;20842072;28;20053;-79
2022/07/31 10:00:00;;;;;;;4.00;1.52;;;;;;;28.77;35.35;100423.16;20853752;28;20040;-79
2022/07/31 10:10:01;;;;;;;3.00;1.60;;;;;;;28.82;34.68;100428.13;20900809;22;20056;-68
2022/07/31 10:20:03;;;;;;;4.47;1.52;;;;;;;29.15;34.94;100424.19;20889575;28;20052;-69
2022/07/31 10:30:04;;;;;;;4.22;1.70;;;;;;;29.55;35.06;100405.13;20896758;28;20130;-69
2022/07/31 10:40:06;;;;;;;3.83;1.60;;;;;;;29.33;33.24;100400.91;21033682;22;20037;-69
2022/07/31 10:50:07;;;;;;;6.05;1.60;;;;;;;29.66;33.24;100385.22;20987704;28;20528;-69
2022/07/31 11:00:10;;;;;;;3.47;1.70;;;;;;;30.33;33.18;100362.44;20985317;28;20464;-68
2022/07/31 11:10:12;;;;;;;11.63;4.38;;;;;;;29.29;34.63;100359.03;20980695;28;20135;-68
2022/07/31 11:20:13;;;;;;;8.32;3.88;;;;;;;29.32;33.63;100347.94;20984874;28;20048;-69
2022/07/31 11:30:15;;;;;;;11.10;5.45;;;;;;;30.12;32.68;100340.22;20983618;28;20044;-68
2022/07/31 11:40:17;;;;;;;6.07;1.85;;;;;;;29.85;32.45;100333.00;20980287;28;20044;-68
2022/07/31 11:50:22;;;;;;;4.55;1.92;;;;;;;29.81;32.72;100320.81;20900010;28;20080;-66
2022/07/31 12:00:23;;;;;;;5.82;2.05;;;;;;;29.61;33.64;100296.63;20902707;28;20041;-68
2022/07/31 12:10:29;;;;;;;5.68;1.80;;;;;;;29.79;33.27;100285.84;20977164;28;20048;-68
2022/07/31 12:20:30;;;;;;;8.55;1.65;;;;;;;29.95;33.07;100278.97;20980579;28;20052;-67
2022/07/31 12:30:37;;;;;;;7.97;1.85;;;;;;;30.81;31.14;100255.81;20953062;28;20496;-68
2022/07/31 12:40:38;;;;;;;4.32;1.70;;;;;;;31.08;29.68;100237.72;20895194;28;20056;-67
2022/07/31 12:50:40;;;;;;;5.95;1.60;;;;;;;31.35;28.22;100218.63;20894661;28;20322;-67
2022/07/31 13:00:41;;;;;;;7.75;1.80;;;;;;;31.40;29.15;100207.31;20937685;28;20051;-65
2022/07/31 13:10:43;;;;;;;4.32;1.70;;;;;;;30.79;27.45;100203.75;20976655;28;20052;-67
2022/07/31 13:20:44;;;;;;;5.22;1.60;;;;;;;30.31;28.92;100199.66;20975300;28;20108;-67
2022/07/31 13:30:45;;;;;;;4.35;1.60;;;;;;;30.91;28.02;100180.84;20973759;28;20048;-68
2022/07/31 13:51:07;;;;;;;4.53;1.50;;;;;;;31.85;25.69;100169.03;20970442;28;20056;-67
2022/07/31 14:01:08;;;;;;;7.25;2.08;;;;;;;30.70;26.60;100172.25;20950237;28;20228;-67
2022/07/31 14:11:10;;;;;;;4.40;1.38;;;;;;;31.29;25.78;100143.53;20887751;28;20053;-67
2022/07/31 14:21:15;;;;;;;4.25;1.38;;;;;;;31.75;25.16;100143.97;20889976;28;20045;-67
2022/07/31 14:31:16;;;;;;;2.80;1.50;;;;;;;32.03;25.00;100124.72;20923553;28;20604;-66
2022/07/31 14:41:18;;;;;;;4.18;1.33;;;;;;;31.90;24.32;100123.34;20967690;28;20053;-68
2022/07/31 14:51:19;;;;;;;3.40;1.20;;;;;;;31.84;24.67;100129.44;20887809;28;20048;-67
2022/07/31 15:01:20;;;;;;;5.63;1.23;;;;;;;31.44;25.88;100130.22;20887894;28;20049;-67
2022/07/31 15:11:24;;;;;;;3.85;1.15;;;;;;;31.59;24.52;100106.06;20887071;28;20048;-68
2022/07/31 15:21:45;;;;;;;3.20;1.02;;;;;;;31.13;26.02;100116.38;20981667;28;20102;-68
2022/07/31 15:32:07;;;;;;;4.07;1.27;;;;;;;31.68;24.41;100113.16;20932801;28;20045;-68
2022/07/31 15:42:08;;;;;;;2.90;1.05;;;;;;;31.54;24.66;100094.88;20899322;28;20055;-67
2022/07/31 15:52:15;;;;;;;5.63;1.30;;;;;;;31.48;24.31;100092.81;20898581;28;20045;-67
2022/07/31 16:02:19;;;;;;;3.05;1.33;;;;;;;31.58;24.53;100101.66;20902758;28;20099;-67
2022/07/31 16:12:20;;;;;;;1.52;0.80;;;;;;;31.70;23.82;100084.06;20909171;28;20513;-68
2022/07/31 16:22:22;;;;;;;2.78;1.17;;;;;;;31.61;23.96;100085.06;20897513;28;20139;-67
2022/07/31 16:32:23;;;;;;;5.13;1.00;;;;;;;32.03;24.41;100073.25;20893077;28;20041;-67
2022/07/31 16:42:25;;;;;;;2.40;1.00;;;;;;;31.87;24.25;100074.13;20904394;22;20045;-76
2022/07/31 16:52:26;;;;;;;3.90;1.02;;;;;;;32.03;24.13;100070.56;20821481;28;20452;-76
2022/07/31 17:02:27;;;;;;;3.85;1.27;;;;;;;31.12;23.90;100071.41;20824958;28;20573;-76
2022/07/31 17:12:29;;;;;;;2.10;0.80;;;;;;;31.04;24.93;100068.69;20834086;28;20055;-76
2022/07/31 17:22:30;;;;;;;4.45;1.08;;;;;;;31.16;24.65;100080.91;20844826;28;20045;-76
2022/07/31 17:32:33;;;;;;;2.97;1.25;;;;;;;31.27;25.37;100075.19;20836316;28;20049;-76
2022/07/31 17:42:34;;;;;;;2.90;0.95;;;;;;;31.13;25.54;100086.63;20823387;28;20056;-76
2022/07/31 17:52:37;;;;;;;3.50;1.15;;;;;;;30.70;26.48;100096.56;20850682;28;20049;-76
2022/07/31 18:02:39;;;;;;;2.43;1.10;;;;;;;30.42;26.67;100104.00;20841883;28;20053;-76
2022/07/31 18:12:40;;;;;;;2.93;1.20;;;;;;;30.33;27.08;100108.53;20855197;28;20049;-76
2022/07/31 18:22:58;;;;;;;2.00;0.98;;;;;;;29.87;27.48;100120.44;20851479;28;20588;-76
2022/07/31 18:33:00;;;;;;;5.03;1.57;;;;;;;29.15;29.92;100124.91;20835577;28;20041;-76
2022/07/31 18:43:02;;;;;;;4.40;1.48;;;;;;;28.69;31.14;100139.25;20849568;28;20046;-76
2022/07/31 18:53:04;;;;;;;4.30;1.47;;;;;;;28.33;31.87;100150.66;20847730;28;20068;-76
2022/07/31 19:03:06;;;;;;;3.08;1.40;;;;;;;28.02;32.86;100163.41;20856537;28;20053;-76
2022/07/31 19:13:08;;;;;;;3.20;1.73;;;;;;;27.63;33.71;100157.13;20861370;28;20042;-77
2022/07/31 19:23:19;;;;;;;5.75;1.92;;;;;;;27.31;34.43;100168.97;20841509;28;20133;-76
2022/07/31 19:33:20;;;;;;;3.65;1.80;;;;;;;27.00;35.38;100186.09;20864789;28;20502;-76
2022/07/31 19:43:21;;;;;;;6.47;2.08;;;;;;;26.64;36.52;100199.06;20839968;28;20049;-76
2022/07/31 19:53:23;;;;;;;6.80;2.08;;;;;;;26.43;37.84;100214.31;20838772;28;20041;-76
2022/07/31 20:03:25;;;;;;;4.30;1.70;;;;;;;25.98;38.61;100230.59;20865026;28;20042;-76
2022/07/31 20:13:26;;;;;;;3.80;1.95;;;;;;;25.79;39.19;100237.47;20834124;28;20056;-76
2022/07/31 20:23:28;;;;;;;5.43;2.25;;;;;;;25.68;39.14;100232.09;20845893;28;20563;-76
2022/07/31 20:33:29;;;;;;;4.40;2.22;;;;;;;25.52;39.66;100242.34;20846450;28;20050;-77
2022/07/31 20:43:30;;;;;;;4.32;2.10;;;;;;;25.39;40.21;100250.50;20854445;28;20064;-77
2022/07/31 20:53:32;;;;;;;6.50;2.30;;;;;;;25.17;41.04;100243.34;20850161;28;20052;-77
2022/07/31 21:03:33;;;;;;;5.10;2.17;;;;;;;24.96;41.54;100244.97;20859540;28;20041;-80
2022/07/31 21:13:35;;;;;;;4.30;2.25;;;;;;;24.82;42.15;100257.63;20861745;28;20113;-80
2022/07/31 21:23:36;;;;;;;6.13;2.50;;;;;;;24.57;42.88;100253.28;20859388;28;20052;-80
2022/07/31 21:33:37;;;;;;;4.18;2.35;;;;;;;24.47;43.15;100270.19;20889933;28;20044;-80
2022/07/31 21:43:40;;;;;;;5.93;2.17;;;;;;;24.32;44.06;100270.34;20861643;28;20043;-80
2022/07/31 21:53:59;;;;;;;4.75;2.50;;;;;;;24.06;44.89;100288.34;20883019;28;20052;-79
2022/07/31 22:04:00;;;;;;;4.60;2.35;;;;;;;24.04;44.66;100281.38;20852741;28;20055;-79
2022/07/31 22:14:02;;;;;;;6.40;2.50;;;;;;;24.06;44.91;100287.50;20827124;28;20057;-79
2022/07/31 22:24:03;;;;;;;6.00;2.40;;;;;;;23.71;47.55;100298.06;20869488;28;20516;-79
2022/07/31 22:34:04;;;;;;;5.22;2.65;;;;;;;23.37;49.30;100307.59;20863514;28;20536;-79
2022/07/31 22:44:06;;;;;;;3.58;2.20;;;;;;;23.16;49.90;100321.50;20880049;28;20046;-79
2022/07/31 22:54:14;;;;;;;6.78;2.83;;;;;;;22.91;51.49;100322.34;20854212;28;20051;-79
2022/07/31 23:04:15;;;;;;;4.20;2.30;;;;;;;22.67;51.90;100335.50;20867294;28;20080;-79
2022/07/31 23:14:17;;;;;;;4.07;2.38;;;;;;;22.66;52.34;100347.16;20875556;28;20129;-79
2022/07/31 23:24:18;;;;;;;4.72;2.63;;;;;;;22.66;52.96;100360.50;20872369;28;20042;-79
2022/07/31 23:34:19;;;;;;;4.47;2.30;;;;;;;22.71;53.84;100357.50;20850348;28;20453;-79
2022/07/31 23:44:21;;;;;;;4.13;2.58;;;;;;;22.62;55.35;100360.78;20861642;28;20140;-80
2022/07/31 23:54:26;;;;;;;6.07;2.45;;;;;;;22.48;56.54;100341.22;20861682;28;20063;-79
